Time;durP1;ratioP1;P1;durP2;ratioP2;P2;SDS_P1;SDS_P2;PMS_P1;PMS_P2;Temp;Humidity;BMP_temperature;BMP_pressure;BME280_temperature;BME280_humidity;BME280_pressure;Samples;Min_cycle;Max_cycle;Signal;HPM_P1;HPM_P2
2023/01/04 00:01:15;;;;;;;29.00;13.78;;;;;;;5.16;98.06;100209.62;1745899;81;20971;-76
2023/01/04 00:03:42;;;;;;;31.12;14.68;;;;;;;5.11;98.38;100208.67;1755824;80;21247;-76
2023/01/04 00:06:12;;;;;;;33.18;15.75;;;;;;;5.08;97.72;100209.50;1742047;81;20918;-77
2023/01/04 00:08:38;;;;;;;35.92;16.60;;;;;;;5.03;97.37;100210.27;1758407;81;21486;-76
2023/01/04 00:11:09;;;;;;;31.50;14.87;;;;;;;4.99;97.68;100214.50;1742700;81;20974;-76
2023/01/04 00:13:36;;;;;;;32.48;14.98;;;;;;;4.98;98.16;100211.06;1757741;80;20959;-76
2023/01/04 00:16:07;;;;;;;32.65;15.25;;;;;;;5.01;98.24;100205.52;1743227;80;20978;-76
2023/01/04 00:18:35;;;;;;;30.77;14.75;;;;;;;5.03;98.48;100205.97;1756337;80;20977;-76
2023/01/04 00:21:17;;;;;;;31.75;16.32;;;;;;;5.05;98.84;100200.84;1735845;81;20983;-76
2023/01/04 00:23:47;;;;;;;38.02;17.65;;;;;;;5.12;99.28;100215.58;1753343;81;21085;-76
2023/01/04 00:26:18;;;;;;;39.45;17.45;;;;;;;5.17;99.18;100210.94;1728152;82;21428;-76
2023/01/04 00:28:45;;;;;;;36.38;17.32;;;;;;;5.24;99.38;100207.16;1734179;81;21000;-76
2023/01/04 00:31:14;;;;;;;30.95;15.88;;;;;;;5.28;99.34;100204.63;1734772;81;20978;-76
2023/01/04 00:33:41;;;;;;;33.88;15.32;;;;;;;5.32;99.18;100206.84;1734538;82;21046;-76
2023/01/04 00:36:12;;;;;;;30.23;14.87;;;;;;;5.34;99.13;100211.16;1734105;82;21027;-77
2023/01/04 00:38:40;;;;;;;36.00;16.40;;;;;;;5.38;99.06;100218.09;1750492;81;21070;-76
2023/01/04 00:41:10;;;;;;;30.30;14.23;;;;;;;5.41;98.94;100210.81;1736659;81;21050;-76
2023/01/04 00:43:36;;;;;;;31.90;15.38;;;;;;;5.37;98.74;100212.51;1751692;81;21514;-77
2023/01/04 00:46:05;;;;;;;32.08;14.80;;;;;;;5.40;98.89;100214.69;1754661;80;21008;-76
2023/01/04 00:48:32;;;;;;;32.17;14.30;;;;;;;5.41;98.70;100211.25;1747763;80;21098;-76
2023/01/04 00:50:59;;;;;;;37.17;17.10;;;;;;;5.41;98.66;100207.38;1765398;80;20986;-76
2023/01/04 00:53:25;;;;;;;29.77;14.55;;;;;;;5.38;98.62;100209.50;1761533;80;21010;-76
2023/01/04 00:55:52;;;;;;;36.77;16.85;;;;;;;5.37;98.62;100212.91;1763847;80;20962;-77
2023/01/04 00:58:18;;;;;;;34.58;15.43;;;;;;;5.37;98.77;100210.33;1789390;79;21094;-77
2023/01/04 01:00:45;;;;;;;35.20;16.70;;;;;;;5.36;98.62;100213.34;1765222;80;21044;-76
2023/01/04 01:03:11;;;;;;;35.90;16.50;;;;;;;5.30;98.22;100215.83;1731758;81;21089;-76
2023/01/04 01:05:38;;;;;;;37.25;16.62;;;;;;;5.28;98.61;100217.95;1766241;80;21030;-75
2023/01/04 01:10:50;;;;;;;37.20;16.67;;;;;;;5.25;98.54;100205.00;1765127;80;21509;-76
2023/01/04 01:13:17;;;;;;;32.98;16.70;;;;;;;5.22;98.55;100205.84;1758620;80;21017;-76
2023/01/04 01:15:44;;;;;;;35.05;15.65;;;;;;;5.20;98.66;100207.95;1755810;80;21025;-76
2023/01/04 01:18:10;;;;;;;36.08;16.95;;;;;;;5.16;98.60;100209.62;1761847;80;21028;-76
2023/01/04 01:20:42;;;;;;;34.40;16.60;;;;;;;5.10;98.34;100208.24;1763982;80;21013;-76
2023/01/04 01:23:13;;;;;;;33.30;16.60;;;;;;;5.07;98.59;100209.47;1791052;79;21089;-76
2023/01/04 01:25:41;;;;;;;35.33;16.25;;;;;;;5.05;98.80;100207.30;1791047;79;21038;-76
2023/01/04 01:28:08;;;;;;;41.18;16.17;;;;;;;5.04;99.00;100199.13;1731808;81;21049;-77
2023/01/04 01:30:42;;;;;;;36.28;15.30;;;;;;;5.03;98.97;100198.67;1761744;81;20961;-76
2023/01/04 01:33:10;;;;;;;33.80;13.85;;;;;;;5.01;98.99;100197.78;1765966;81;21479;-76
2023/01/04 01:35:36;;;;;;;36.25;16.50;;;;;;;5.01;98.91;100197.78;1762908;81;21832;-77
2023/01/04 01:38:03;;;;;;;36.73;16.93;;;;;;;5.01;99.09;100193.48;1766484;80;21030;-76
2023/01/04 01:40:30;;;;;;;39.67;16.12;;;;;;;5.00;98.57;100186.61;1761387;80;20914;-76
2023/01/04 01:42:56;;;;;;;36.25;16.00;;;;;;;4.96;98.43;100183.12;1764576;80;21811;-76
2023/01/04 01:45:33;;;;;;;35.17;16.62;;;;;;;4.97;98.98;100193.89;1760839;80;20988;-76
2023/01/04 01:48:10;;;;;;;38.10;17.15;;;;;;;4.98;98.92;100199.47;1764112;80;20953;-76
2023/01/04 01:50:42;;;;;;;38.92;18.67;;;;;;;4.97;98.99;100201.62;1788225;79;20960;-76
2023/01/04 01:53:10;;;;;;;40.73;17.98;;;;;;;5.01;99.07;100202.50;1745893;80;21482;-76
2023/01/04 01:55:39;;;;;;;39.58;17.60;;;;;;;5.02;99.09;100200.82;1761933;80;21505;-76
2023/01/04 01:58:09;;;;;;;38.67;17.07;;;;;;;5.03;99.38;100203.83;1764764;80;21038;-76
2023/01/04 02:00:35;;;;;;;35.65;17.23;;;;;;;5.04;99.06;100201.71;1790578;79;21031;-76
2023/01/04 02:03:21;;;;;;;38.78;16.52;;;;;;;5.04;99.32;100201.28;1765497;80;21013;-76
2023/01/04 02:05:52;;;;;;;37.42;16.05;;;;;;;5.06;99.21;100202.59;1760823;80;21100;-76
2023/01/04 02:08:22;;;;;;;41.40;17.73;;;;;;;5.07;99.43;100202.59;1764789;80;20970;-76
2023/01/04 02:10:49;;;;;;;37.67;17.57;;;;;;;5.13;99.53;100197.56;1763737;80;21044;-76
2023/01/04 02:13:20;;;;;;;42.78;19.05;;;;;;;5.13;99.45;100195.38;1765736;81;21013;-76
2023/01/04 02:16:13;;;;;;;46.60;19.60;;;;;;;5.14;99.58;100192.83;1765420;81;21069;-76
2023/01/04 02:18:48;;;;;;;41.70;19.35;;;;;;;5.16;99.53;100191.14;1738276;81;21021;-76
2023/01/04 02:21:35;;;;;;;46.53;19.85;;;;;;;5.18;99.37;100197.62;1764303;81;21034;-76
2023/01/04 02:24:26;;;;;;;44.98;18.87;;;;;;;5.18;99.15;100197.19;1763218;81;21069;-76
2023/01/04 02:27:25;;;;;;;46.95;20.80;;;;;;;5.17;99.25;100194.18;1765162;81;20990;-77
2023/01/04 02:30:17;;;;;;;49.23;21.82;;;;;;;5.18;99.16;100188.16;1727777;81;21013;-76
2023/01/04 02:33:04;;;;;;;46.88;20.25;;;;;;;5.18;99.53;100190.73;1764311;81;21379;-76
2023/01/04 02:35:48;;;;;;;46.85;20.20;;;;;;;5.20;99.42;100189.48;1725160;82;21026;-77
2023/01/04 02:38:53;;;;;;;47.38;18.85;;;;;;;5.24;99.39;100187.39;1723905;83;21112;-76
2023/01/04 02:41:33;;;;;;;38.60;18.65;;;;;;;5.26;99.61;100189.99;1736851;82;21626;-75
2023/01/04 02:50:38;;;;;;;41.98;19.62;;;;;;;5.29;99.21;100181.89;1766434;81;21574;-76
2023/01/04 02:53:15;;;;;;;51.33;21.50;;;;;;;5.32;99.66;100183.20;1777424;81;21166;-76
2023/01/04 02:56:08;;;;;;;41.40;19.17;;;;;;;5.36;99.53;100176.37;1766544;81;21049;-76
2023/01/04 02:59:12;;;;;;;39.40;18.65;;;;;;;5.37;99.45;100177.70;1777307;81;21019;-75
2023/01/04 03:08:05;;;;;;;51.08;22.80;;;;;;;5.52;99.78;100167.13;1766536;81;22170;-75
2023/01/04 03:11:00;;;;;;;49.10;21.80;;;;;;;5.51;99.17;100184.72;1730018;81;21051;-76
2023/01/04 03:13:32;;;;;;;45.08;21.62;;;;;;;5.45;98.64;100180.78;1766540;81;21102;-76
2023/01/04 03:16:06;;;;;;;48.87;21.95;;;;;;;5.34;98.69;100182.80;1765376;81;21051;-76
2023/01/04 03:18:44;;;;;;;46.08;21.95;;;;;;;5.29;98.91;100188.33;1765213;81;21185;-77
2023/01/04 03:21:13;;;;;;;48.28;21.17;;;;;;;5.25;98.57;100190.42;1767728;81;21070;-76
2023/01/04 03:35:56;;;;;;;45.20;20.62;;;;;;;5.06;98.65;100200.88;1727514;81;20971;-76
2023/01/04 03:50:51;;;;;;;40.78;17.50;;;;;;;4.88;99.16;100205.33;1767015;81;21543;-75
2023/01/04 03:53:19;;;;;;;37.28;16.62;;;;;;;4.88;98.87;100202.75;1766712;80;21043;-76
2023/01/04 03:55:48;;;;;;;38.15;17.90;;;;;;;4.88;99.27;100206.62;1767871;81;20979;-76
2023/01/04 03:58:14;;;;;;;39.90;17.77;;;;;;;4.91;99.54;100200.64;1767925;81;21499;-76
2023/01/04 04:00:41;;;;;;;39.60;17.30;;;;;;;4.92;99.88;100203.67;1767998;81;20986;-75
2023/01/04 04:03:07;;;;;;;38.73;17.17;;;;;;;4.95;99.85;100217.88;1767840;81;21023;-75
2023/01/04 04:08:29;;;;;;;38.08;18.37;;;;;;;4.88;100.00;100218.22;1769823;79;20965;-76
2023/01/04 04:11:28;;;;;;;36.08;16.97;;;;;;;4.90;100.00;100216.95;1775783;79;20957;-75
2023/01/04 04:13:28;;;;;;;40.28;16.75;;;;;;;4.92;100.00;100223.00;1760012;79;21017;-75
2023/01/04 04:15:54;;;;;;;32.60;16.87;;;;;;;4.89;100.00;100218.64;1787765;80;20927;-76
2023/01/04 04:18:21;;;;;;;35.65;16.45;;;;;;;4.89;100.00;100219.08;1766002;79;20934;-75
2023/01/04 04:20:51;;;;;;;33.98;16.32;;;;;;;4.93;100.00;100212.72;1761672;79;20964;-76
2023/01/04 04:23:18;;;;;;;32.60;16.70;;;;;;;4.95;100.00;100214.91;1805678;78;20983;-75
2023/01/04 04:25:44;;;;;;;39.35;17.30;;;;;;;5.00;100.00;100220.12;1784356;79;20974;-76
2023/01/04 04:28:11;;;;;;;36.63;19.02;;;;;;;5.02;100.00;100220.15;1794137;79;20980;-76
2023/01/04 04:30:39;;;;;;;37.95;16.97;;;;;;;5.06;100.00;100225.80;1770891;80;20959;-76
2023/01/04 04:33:05;;;;;;;40.80;18.82;;;;;;;5.09;100.00;100221.56;1814753;79;20955;-76
2023/01/04 04:35:32;;;;;;;46.15;19.07;;;;;;;5.12;100.00;100225.45;1763576;79;20915;-76
2023/01/04 04:37:58;;;;;;;38.92;18.20;;;;;;;5.17;100.00;100230.27;1789831;79;20941;-75
2023/01/04 04:43:09;;;;;;;40.15;18.95;;;;;;;5.20;100.00;100223.42;1797277;79;21008;-76
2023/01/04 04:45:36;;;;;;;36.88;17.92;;;;;;;5.25;100.00;100226.52;1809298;78;21007;-76
2023/01/04 04:48:03;;;;;;;39.03;18.37;;;;;;;5.31;100.00;100221.84;1796448;79;20968;-75
2023/01/04 04:50:29;;;;;;;37.38;19.05;;;;;;;5.36;100.00;100222.36;1797935;80;20953;-76
2023/01/04 04:52:56;;;;;;;42.85;18.55;;;;;;;5.41;100.00;100217.69;1797882;80;20972;-76
2023/01/04 04:55:22;;;;;;;44.20;19.62;;;;;;;5.44;100.00;100221.19;1802628;78;21496;-76
2023/01/04 04:57:49;;;;;;;45.05;19.65;;;;;;;5.44;100.00;100229.36;1773696;80;20938;-75
2023/01/04 05:00:16;;;;;;;49.53;23.85;;;;;;;5.42;100.00;100229.76;1788883;79;20961;-76
2023/01/04 05:02:42;;;;;;;47.03;23.62;;;;;;;5.41;100.00;100221.56;1774347;79;21092;-76
2023/01/04 05:05:09;;;;;;;45.95;23.35;;;;;;;5.38;100.00;100228.41;1789854;79;21575;-76
2023/01/04 05:07:36;;;;;;;46.73;22.52;;;;;;;5.39;100.00;100227.98;1759988;81;20969;-76
2023/01/04 05:10:04;;;;;;;52.65;22.70;;;;;;;5.43;100.00;100227.20;1764599;81;21007;-76
2023/01/04 05:15:15;;;;;;;48.92;22.73;;;;;;;5.46;100.00;100231.53;1769101;81;20983;-76
2023/01/04 05:17:42;;;;;;;48.33;22.50;;;;;;;5.44;100.00;100228.06;1768354;80;21025;-75
2023/01/04 05:20:09;;;;;;;55.58;24.30;;;;;;;5.44;100.00;100231.94;1768803;79;20962;-75
2023/01/04 05:22:35;;;;;;;51.80;23.20;;;;;;;5.41;100.00;100233.16;1768306;80;21507;-75
2023/01/04 05:25:02;;;;;;;52.23;24.85;;;;;;;5.40;100.00;100228.87;1768466;81;21029;-76
2023/01/04 05:27:28;;;;;;;56.45;25.27;;;;;;;5.36;100.00;100227.52;1767929;80;20968;-76
2023/01/04 05:32:40;;;;;;;45.15;23.67;;;;;;;5.27;100.00;100226.13;1768177;79;20981;-76
2023/01/04 05:35:07;;;;;;;48.42;23.55;;;;;;;5.25;100.00;100231.68;1768476;81;20953;-76
2023/01/04 05:37:34;;;;;;;44.88;21.23;;;;;;;5.22;100.00;100222.59;1767996;79;21010;-77
2023/01/04 05:40:00;;;;;;;43.60;19.57;;;;;;;5.23;100.00;100224.74;1768484;79;21482;-76
2023/01/04 05:42:27;;;;;;;42.53;18.17;;;;;;;5.20;100.00;100225.58;1767861;79;20992;-76
2023/01/04 05:44:56;;;;;;;34.45;17.87;;;;;;;5.22;100.00;100230.77;1766963;79;21009;-76
2023/01/04 05:47:23;;;;;;;38.83;19.32;;;;;;;5.21;100.00;100238.89;1764875;81;20998;-76
2023/01/04 05:49:50;;;;;;;40.03;19.05;;;;;;;5.21;100.00;100234.17;1755382;81;21358;-76
2023/01/04 05:52:18;;;;;;;45.73;21.70;;;;;;;5.23;100.00;100231.19;1754746;81;21514;-76
2023/01/04 05:54:45;;;;;;;41.70;20.92;;;;;;;5.27;100.00;100238.13;1753057;81;21069;-76
2023/01/04 05:57:12;;;;;;;44.03;20.17;;;;;;;5.29;100.00;100229.59;1755819;81;21006;-76
2023/01/04 05:59:39;;;;;;;46.65;22.20;;;;;;;5.34;100.00;100234.80;1751689;81;21013;-77
2023/01/04 06:02:06;;;;;;;37.28;18.27;;;;;;;5.37;100.00;100243.45;1755585;81;20997;-76
2023/01/04 06:04:32;;;;;;;37.42;19.50;;;;;;;5.41;100.00;100237.03;1751854;81;20985;-76
2023/01/04 06:06:59;;;;;;;37.42;18.57;;;;;;;5.41;100.00;100238.32;1756118;81;21058;-76
2023/01/04 06:09:26;;;;;;;38.78;19.20;;;;;;;5.43;100.00;100232.77;1751741;80;20946;-76
2023/01/04 06:11:53;;;;;;;33.53;17.62;;;;;;;5.46;100.00;100236.26;1755919;81;20974;-76
2023/01/04 06:14:19;;;;;;;43.20;20.40;;;;;;;5.50;100.00;100241.90;1752022;81;21072;-76
2023/01/04 06:16:46;;;;;;;56.90;29.02;;;;;;;5.50;100.00;100248.78;1760443;81;21597;-76
2023/01/04 06:19:13;;;;;;;47.85;23.25;;;;;;;5.50;100.00;100256.52;1734690;82;21006;-76
2023/01/04 06:21:39;;;;;;;63.05;28.38;;;;;;;5.49;100.00;100261.22;1728540;82;21063;-76
2023/01/04 06:24:06;;;;;;;54.55;26.55;;;;;;;5.49;100.00;100263.39;1739604;82;22048;-76
2023/01/04 06:26:32;;;;;;;55.50;24.57;;;;;;;5.51;100.00;100263.00;1740946;81;21014;-76
2023/01/04 06:28:59;;;;;;;53.87;26.10;;;;;;;5.52;100.00;100260.84;1770574;81;21048;-76
2023/01/04 06:31:25;;;;;;;66.70;29.02;;;;;;;5.54;100.00;100270.76;1689756;82;21603;-76
2023/01/04 06:33:52;;;;;;;80.92;35.65;;;;;;;5.58;100.00;100273.83;1723319;82;21055;-76
2023/01/04 06:36:18;;;;;;;71.28;30.55;;;;;;;5.62;100.00;100275.17;1756441;80;21104;-76
2023/01/04 06:38:44;;;;;;;72.22;34.15;;;;;;;5.64;100.00;100273.48;1757320;81;21265;-76
2023/01/04 06:41:11;;;;;;;53.17;26.75;;;;;;;5.69;100.00;100275.68;1755927;80;21046;-76
2023/01/04 06:43:37;;;;;;;50.52;24.60;;;;;;;5.74;100.00;100271.47;1758291;80;21021;-76
2023/01/04 06:46:04;;;;;;;57.50;27.93;;;;;;;5.79;100.00;100280.15;1733653;82;21029;-77
2023/01/04 06:48:30;;;;;;;64.22;30.48;;;;;;;5.83;100.00;100283.20;1779715;79;21051;-76
2023/01/04 06:50:57;;;;;;;70.05;31.05;;;;;;;5.88;100.00;100292.29;1808188;78;21026;-76
2023/01/04 06:53:23;;;;;;;61.08;28.65;;;;;;;5.93;100.00;100292.80;1768796;81;21028;-76
2023/01/04 06:55:50;;;;;;;50.78;25.00;;;;;;;5.97;100.00;100298.48;1784953;79;20996;-76
2023/01/04 06:58:16;;;;;;;44.18;22.10;;;;;;;5.97;100.00;100298.48;1739003;81;21001;-76
2023/01/04 07:00:43;;;;;;;45.90;22.22;;;;;;;5.98;100.00;100305.79;1773131;81;21521;-76
2023/01/04 07:03:10;;;;;;;47.25;23.25;;;;;;;5.96;100.00;100299.74;1773703;79;21479;-76
2023/01/04 07:05:36;;;;;;;45.63;21.90;;;;;;;5.94;100.00;100306.56;1784920;79;21103;-77
2023/01/04 07:08:03;;;;;;;47.27;23.42;;;;;;;5.94;100.00;100302.69;1744160;81;20992;-76
2023/01/04 07:10:30;;;;;;;50.73;25.50;;;;;;;5.93;100.00;100295.38;1783428;80;21048;-76
2023/01/04 07:12:56;;;;;;;54.65;26.82;;;;;;;5.96;100.00;100302.32;1771667;79;21013;-76
2023/01/04 07:15:23;;;;;;;64.85;28.40;;;;;;;5.95;100.00;100308.34;1781150;80;21038;-76
2023/01/04 07:17:50;;;;;;;57.58;28.05;;;;;;;5.96;100.00;100311.36;1766875;79;20957;-76
2023/01/04 07:20:17;;;;;;;56.40;28.05;;;;;;;5.92;99.95;100312.13;1777676;79;21585;-76
2023/01/04 07:22:44;;;;;;;60.15;29.05;;;;;;;5.92;100.00;100319.44;1779134;79;21083;-77
2023/01/04 07:25:10;;;;;;;53.10;25.92;;;;;;;5.90;100.00;100321.57;1775742;80;21036;-76
2023/01/04 07:27:36;;;;;;;58.28;28.12;;;;;;;5.87;100.00;100318.93;1789442;79;20977;-76
2023/01/04 07:30:04;;;;;;;55.25;26.55;;;;;;;5.85;100.00;100324.50;1776209;80;21027;-76
2023/01/04 07:32:30;;;;;;;54.48;27.22;;;;;;;5.82;99.82;100328.34;1791106;79;21543;-76
2023/01/04 07:34:57;;;;;;;55.70;27.07;;;;;;;5.80;100.00;100326.17;1778155;80;21290;-76
2023/01/04 07:37:24;;;;;;;52.53;25.40;;;;;;;5.78;100.00;100328.28;1791485;80;21051;-76
2023/01/04 07:39:50;;;;;;;53.80;25.82;;;;;;;5.76;99.66;100334.28;1780602;79;20981;-76
2023/01/04 07:42:18;;;;;;;56.83;29.12;;;;;;;5.74;100.00;100339.41;1774430;80;21002;-76
2023/01/04 07:44:45;;;;;;;60.67;27.35;;;;;;;5.76;100.00;100343.31;1776732;79;21008;-76
2023/01/04 07:47:12;;;;;;;54.13;25.55;;;;;;;5.78;100.00;100340.33;1785932;79;21005;-77
2023/01/04 07:49:38;;;;;;;51.20;24.92;;;;;;;5.77;100.00;100340.77;1782417;79;21529;-76
2023/01/04 07:52:05;;;;;;;58.55;25.60;;;;;;;5.80;100.00;100341.22;1785077;79;21052;-76
2023/01/04 07:54:31;;;;;;;87.50;40.52;;;;;;;5.78;100.00;100347.64;1788990;79;21000;-76
2023/01/04 07:56:58;;;;;;;63.68;29.98;;;;;;;5.81;100.00;100354.98;1783777;80;20965;-76
2023/01/04 07:59:24;;;;;;;66.87;29.48;;;;;;;5.83;100.00;100349.42;1789708;79;21009;-76
2023/01/04 08:01:51;;;;;;;60.40;29.67;;;;;;;5.85;100.00;100349.91;1778887;79;21004;-76
2023/01/04 08:04:22;;;;;;;62.08;28.55;;;;;;;5.88;100.00;100354.23;1793242;79;21016;-77
2023/01/04 08:06:50;;;;;;;62.50;28.10;;;;;;;5.88;100.00;100350.36;1770549;80;21033;-76
2023/01/04 08:09:17;;;;;;;62.40;28.80;;;;;;;5.88;100.00;100344.77;1787294;79;21306;-76
2023/01/04 08:11:44;;;;;;;58.23;26.50;;;;;;;5.95;100.00;100353.09;1772886;80;20997;-76
2023/01/04 08:14:11;;;;;;;63.92;28.42;;;;;;;5.96;100.00;100351.37;1785598;80;21016;-76
2023/01/04 08:16:41;;;;;;;66.60;26.93;;;;;;;6.04;100.00;100359.22;1771834;79;21081;-76
2023/01/04 08:19:17;;;;;;;58.25;27.87;;;;;;;6.07;100.00;100357.95;1758802;79;21048;-76
2023/01/04 08:21:44;;;;;;;50.30;24.95;;;;;;;6.13;100.00;100368.39;1776788;79;20984;-76
2023/01/04 08:24:14;;;;;;;51.77;24.98;;;;;;;6.14;100.00;100370.11;1777360;80;21091;-76
2023/01/04 08:26:41;;;;;;;51.80;24.32;;;;;;;6.17;100.00;100374.90;1779480;79;21429;-76
2023/01/04 08:29:09;;;;;;;54.90;24.18;;;;;;;6.23;100.00;100373.22;1777902;80;20985;-77
2023/01/04 08:31:35;;;;;;;79.03;34.78;;;;;;;6.26;100.00;100368.12;1782618;79;21556;-76
2023/01/04 08:34:05;;;;;;;69.00;30.92;;;;;;;6.30;100.00;100366.88;1780537;79;20972;-76
2023/01/04 08:36:35;;;;;;;71.20;31.73;;;;;;;6.35;100.00;100361.78;1786963;79;20997;-76
2023/01/04 08:39:05;;;;;;;58.58;26.50;;;;;;;6.37;100.00;100360.09;1779582;80;21037;-76
2023/01/04 08:41:49;;;;;;;55.78;26.62;;;;;;;6.40;100.00;100365.27;1789048;79;20993;-76
2023/01/04 08:44:05;;;;;;;60.90;28.00;;;;;;;6.44;100.00;100365.75;1742169;79;20970;-76
2023/01/04 08:46:31;;;;;;;55.95;26.52;;;;;;;6.47;100.00;100380.02;1793252;79;21001;-76
2023/01/04 08:48:58;;;;;;;66.07;30.25;;;;;;;6.52;100.00;100385.22;1781119;79;21029;-76
2023/01/04 08:51:25;;;;;;;66.37;30.37;;;;;;;6.56;100.00;100389.58;1749755;79;21498;-76
2023/01/04 08:53:51;;;;;;;58.33;31.55;;;;;;;6.58;100.00;100385.30;1758832;81;20940;-76
2023/01/04 08:56:18;;;;;;;74.15;36.83;;;;;;;6.63;100.00;100382.78;1770815;80;21509;-77
2023/01/04 08:58:44;;;;;;;64.07;30.90;;;;;;;6.69;100.00;100388.88;1779797;78;21006;-76
2023/01/04 09:01:11;;;;;;;58.60;30.20;;;;;;;6.72;100.00;100380.28;1769160;81;21158;-76
2023/01/04 09:03:38;;;;;;;74.32;33.98;;;;;;;6.75;100.00;100377.31;1768918;80;21037;-76
2023/01/04 09:06:11;;;;;;;79.97;34.83;;;;;;;6.81;100.00;100376.95;1769276;81;21022;-77
2023/01/04 09:08:40;;;;;;;75.65;32.35;;;;;;;6.81;100.00;100371.78;1768515;80;21542;-76
2023/01/04 09:11:14;;;;;;;70.90;32.40;;;;;;;6.83;100.00;100364.91;1768451;81;20993;-77
2023/01/04 09:13:41;;;;;;;70.92;30.68;;;;;;;6.86;100.00;100368.38;1764051;80;20996;-77
2023/01/04 09:16:17;;;;;;;72.70;30.97;;;;;;;6.91;100.00;100360.25;1770879;81;21014;-77
2023/01/04 09:18:46;;;;;;;65.62;33.10;;;;;;;6.93;100.00;100363.72;1771232;80;21666;-77
2023/01/04 09:21:21;;;;;;;66.53;31.70;;;;;;;6.95;100.00;100356.84;1769825;78;21146;-77
2023/01/04 09:23:47;;;;;;;72.82;33.63;;;;;;;7.00;100.00;100362.48;1785403;78;21583;-78
2023/01/04 09:26:21;;;;;;;66.65;33.73;;;;;;;7.03;100.00;100350.89;1772226;79;21567;-78
2023/01/04 09:28:49;;;;;;;63.75;31.45;;;;;;;7.03;100.00;100344.42;1768538;79;21044;-76
2023/01/04 09:31:19;;;;;;;72.35;34.95;;;;;;;6.97;99.92;100355.13;1765577;80;20979;-77
2023/01/04 09:33:46;;;;;;;88.17;41.80;;;;;;;6.94;99.81;100344.78;1769399;79;20954;-76
2023/01/04 09:36:16;;;;;;;72.05;32.75;;;;;;;6.92;99.83;100337.84;1773805;80;21400;-77
2023/01/04 09:38:42;;;;;;;79.65;36.33;;;;;;;6.92;99.78;100334.85;1764289;79;20958;-77
2023/01/04 09:41:30;;;;;;;91.75;38.38;;;;;;;6.92;99.75;100335.25;1777795;79;20960;-77
2023/01/04 09:44:08;;;;;;;91.32;39.30;;;;;;;6.90;99.63;100336.56;1748505;79;20991;-77
2023/01/04 09:46:55;;;;;;;75.37;38.13;;;;;;;6.90;99.69;100324.92;1776670;78;20960;-77
2023/01/04 09:49:38;;;;;;;78.70;38.63;;;;;;;6.89;99.80;100315.42;1770670;79;20980;-77
2023/01/04 09:52:12;;;;;;;85.00;38.95;;;;;;;6.86;99.33;100320.55;1760804;80;20951;-77
2023/01/04 09:54:56;;;;;;;81.47;37.17;;;;;;;6.83;100.00;100319.67;1742364;81;20983;-76
2023/01/04 09:57:27;;;;;;;71.00;31.97;;;;;;;6.85;99.99;100315.38;1718821;81;21019;-77
2023/01/04 10:00:05;;;;;;;70.87;32.13;;;;;;;6.86;100.00;100305.03;1750983;80;21526;-77
2023/01/04 10:02:47;;;;;;;74.58;34.65;;;;;;;6.92;100.00;100302.53;1752506;81;21030;-77
2023/01/04 10:05:21;;;;;;;73.33;34.35;;;;;;;7.00;100.00;100307.75;1734881;81;21039;-77
2023/01/04 10:07:47;;;;;;;;;;;;;;;7.08;100.00;100300.95;1739657;81;21034;-76
2023/01/04 10:10:18;;;;;;;80.53;35.20;;;;;;;7.19;100.00;100301.45;1740144;81;20850;-76
2023/01/04 10:12:52;;;;;;;96.63;42.70;;;;;;;7.26;100.00;100301.52;1739806;81;21051;-76
2023/01/04 10:15:33;;;;;;;86.57;39.70;;;;;;;7.34;100.00;100297.67;1741362;81;21050;-76
2023/01/04 10:18:29;;;;;;;77.45;33.60;;;;;;;7.37;100.00;100288.66;1761773;80;20986;-76
2023/01/04 10:21:29;;;;;;;84.87;38.33;;;;;;;7.42;100.00;100284.39;1751805;80;22260;-76
2023/01/04 10:24:10;;;;;;;55.03;25.95;;;;;;;7.49;100.00;100282.70;1727962;81;20972;-75
2023/01/04 10:26:42;;;;;;;62.60;29.12;;;;;;;7.47;100.00;100281.39;1706265;81;21078;-77
2023/01/04 10:29:30;;;;;;;57.17;26.15;;;;;;;7.47;100.00;100280.09;1736018;81;21082;-77
2023/01/04 10:32:10;;;;;;;51.55;22.25;;;;;;;7.51;100.00;100280.55;1735892;81;21107;-77
2023/01/04 10:34:43;;;;;;;42.90;22.00;;;;;;;7.52;100.00;100281.41;1714072;81;21039;-76
2023/01/04 10:37:23;;;;;;;42.43;20.43;;;;;;;7.52;99.92;100280.11;1742811;81;21045;-77
2023/01/04 10:39:54;;;;;;;54.70;24.05;;;;;;;7.51;99.86;100283.58;1734717;81;21035;-76
2023/01/04 10:42:35;;;;;;;44.27;22.17;;;;;;;7.55;100.00;100268.50;1738635;81;21038;-77
2023/01/04 10:45:19;;;;;;;44.45;19.92;;;;;;;7.61;100.00;100269.83;1755444;81;21094;-76
2023/01/04 10:48:15;;;;;;;41.53;20.20;;;;;;;7.64;100.00;100264.69;1725550;81;21007;-77
2023/01/04 10:50:55;;;;;;;45.08;22.32;;;;;;;7.66;100.00;100264.27;1799292;79;21589;-76
2023/01/04 10:53:30;;;;;;;51.23;25.40;;;;;;;7.67;99.93;100267.27;1785333;79;20975;-76
2023/01/04 10:56:24;;;;;;;51.53;25.27;;;;;;;7.67;100.00;100267.71;1804324;78;21579;-76
2023/01/04 10:59:24;;;;;;;53.95;27.90;;;;;;;7.69;100.00;100264.27;1795907;79;21570;-76
2023/01/04 11:01:59;;;;;;;51.60;27.15;;;;;;;7.70;100.00;100262.53;1799867;78;21008;-77
2023/01/04 11:04:50;;;;;;;58.35;28.73;;;;;;;7.68;100.00;100261.66;1794887;78;20977;-75
2023/01/04 11:07:27;;;;;;;66.45;31.07;;;;;;;7.66;100.00;100260.78;1794539;78;21881;-76
2023/01/04 11:10:11;;;;;;;62.62;30.12;;;;;;;7.70;100.00;100266.41;1794570;78;20971;-76
2023/01/04 11:12:38;;;;;;;53.13;27.93;;;;;;;7.69;100.00;100251.31;1766577;80;20955;-76
2023/01/04 11:15:05;;;;;;;56.30;26.40;;;;;;;7.73;100.00;100251.77;1766950;80;20935;-76
2023/01/04 11:17:32;;;;;;;48.52;21.05;;;;;;;7.77;100.00;100244.89;1804265;78;20952;-76
2023/01/04 11:19:59;;;;;;;46.77;22.93;;;;;;;7.85;100.00;100248.81;1771550;80;21490;-76
2023/01/04 11:22:37;;;;;;;44.35;21.55;;;;;;;7.85;100.00;100244.49;1751415;80;20982;-77
2023/01/04 11:25:09;;;;;;;46.18;22.27;;;;;;;7.87;100.00;100243.21;1770435;80;20954;-76
2023/01/04 11:27:53;;;;;;;40.23;19.90;;;;;;;7.89;100.00;100235.88;1773667;80;20995;-77
2023/01/04 11:30:22;;;;;;;;;;;;;;;7.95;100.00;100236.34;1777091;79;20978;-76
2023/01/04 11:33:02;;;;;;;45.45;21.10;;;;;;;8.00;100.00;100232.05;1801841;78;20122;-76
2023/01/04 11:35:45;;;;;;;41.60;20.17;;;;;;;8.00;100.00;100232.05;1797504;78;20979;-77
2023/01/04 11:38:26;;;;;;;47.50;22.50;;;;;;;8.05;100.00;100235.50;1798258;78;21459;-76
2023/01/04 11:41:07;;;;;;;40.85;22.15;;;;;;;8.07;100.00;100231.63;1801797;77;20978;-76
2023/01/04 11:43:37;;;;;;;42.93;22.77;;;;;;;8.09;100.00;100228.17;1769380;80;21037;-76
2023/01/04 11:46:08;;;;;;;52.70;22.62;;;;;;;8.20;100.00;100226.05;1789558;78;21010;-76
2023/01/04 11:48:44;;;;;;;45.38;20.95;;;;;;;8.27;100.00;100221.33;1772582;80;21016;-76
2023/01/04 11:51:22;;;;;;;41.48;20.35;;;;;;;8.36;100.00;100217.47;1798446;78;20951;-77
2023/01/04 11:54:03;;;;;;;38.53;18.85;;;;;;;8.43;100.00;100225.70;1778003;78;20972;-76
2023/01/04 11:56:35;;;;;;;37.17;18.05;;;;;;;8.44;100.00;100215.78;1786628;78;20979;-76
2023/01/04 11:59:12;;;;;;;37.55;16.35;;;;;;;8.45;100.00;100210.16;1783879;79;21604;-76
2023/01/04 12:01:45;;;;;;;35.38;16.55;;;;;;;8.47;100.00;100213.18;1774110;79;21016;-77
2023/01/04 12:04:25;;;;;;;37.28;17.52;;;;;;;8.53;100.00;100215.81;1746589;81;20949;-76
2023/01/04 12:07:06;;;;;;;49.13;19.17;;;;;;;8.54;100.00;100206.30;1791759;78;21851;-76
2023/01/04 12:09:32;;;;;;;36.63;16.17;;;;;;;8.58;100.00;100211.06;1789957;79;20932;-76
2023/01/04 12:12:00;;;;;;;29.45;14.75;;;;;;;8.61;100.00;100208.02;1782048;79;20996;-76
2023/01/04 12:14:31;;;;;;;35.85;16.17;;;;;;;8.61;100.00;100216.23;1779334;79;20933;-76
2023/01/04 12:17:22;;;;;;;36.73;15.48;;;;;;;8.64;100.00;100208.47;1793953;78;21011;-76
2023/01/04 12:19:53;;;;;;;24.60;13.00;;;;;;;8.70;100.00;100215.80;1798798;78;21064;-76
2023/01/04 12:22:33;;;;;;;29.82;13.32;;;;;;;8.74;100.00;100213.64;1767293;79;21020;-76